Time;durP1;ratioP1;P1;durP2;ratioP2;P2;SDS_P1;SDS_P2;PMS_P1;PMS_P2;Temp;Humidity;BMP_temperature;BMP_pressure;BME280_temperature;BME280_humidity;BME280_pressure;Samples;Min_cycle;Max_cycle;Signal;HPM_P1;HPM_P2
2023/02/11 00:01:24;;;;;;;7.82;6.15;;;18.10;40.90;;;;;;5032013;28;20188;-68
2023/02/11 00:03:52;;;;;;;9.43;5.95;;;18.20;41.00;;;;;;5031596;28;20211;-68
2023/02/11 00:06:19;;;;;;;7.30;5.88;;;18.10;40.90;;;;;;5035556;28;20184;-68
2023/02/11 00:08:46;;;;;;;9.70;6.07;;;18.10;40.90;;;;;;5018459;28;20250;-68
2023/02/11 00:11:14;;;;;;;7.45;5.72;;;18.10;40.90;;;;;;5036453;28;20212;-68
2023/02/11 00:13:42;;;;;;;10.88;6.47;;;18.10;40.90;;;;;;5036128;28;20188;-68
2023/02/11 00:16:11;;;;;;;8.40;5.88;;;18.10;40.90;;;;;;5035827;28;20281;-68
2023/02/11 00:18:40;;;;;;;10.50;6.72;;;18.10;40.90;;;;;;5036047;28;20196;-68
2023/02/11 00:21:08;;;;;;;9.35;6.40;;;18.10;41.00;;;;;;5035696;28;20764;-68
2023/02/11 00:23:36;;;;;;;9.70;6.30;;;18.10;40.90;;;;;;5035416;28;20234;-68
2023/02/11 00:26:04;;;;;;;9.43;6.28;;;18.10;41.00;;;;;;5036158;28;20224;-68
2023/02/11 00:28:31;;;;;;;8.48;5.90;;;18.00;40.80;;;;;;5035594;28;20717;-68
2023/02/11 00:31:00;;;;;;;10.13;6.60;;;18.00;40.80;;;;;;5036044;28;20217;-68
2023/02/11 00:33:27;;;;;;;7.75;6.05;;;18.10;40.90;;;;;;5035642;28;20251;-68
2023/02/11 00:35:56;;;;;;;9.20;6.18;;;18.00;40.90;;;;;;5035953;28;20267;-68
2023/02/11 00:38:23;;;;;;;8.38;6.28;;;18.00;40.80;;;;;;5035396;28;20193;-68
2023/02/11 00:40:50;;;;;;;8.77;5.93;;;18.00;40.90;;;;;;5035405;28;20286;-68
2023/02/11 00:43:17;;;;;;;10.02;6.32;;;18.00;40.80;;;;;;5035351;28;20213;-68
2023/02/11 00:45:45;;;;;;;7.65;6.15;;;18.00;40.90;;;;;;5034834;28;20286;-68
2023/02/11 00:48:12;;;;;;;7.30;5.53;;;18.00;40.90;;;;;;5017755;28;20185;-68
2023/02/11 00:50:39;;;;;;;8.32;6.13;;;18.00;40.90;;;;;;5035266;28;20282;-68
2023/02/11 00:53:08;;;;;;;9.30;5.72;;;18.00;40.90;;;;;;5017853;28;20777;-68
2023/02/11 00:55:35;;;;;;;9.57;6.00;;;18.00;40.90;;;;;;5035230;28;20760;-68
2023/02/11 00:58:03;;;;;;;7.47;6.32;;;18.00;40.90;;;;;;5035005;28;20543;-68
2023/02/11 01:00:30;;;;;;;9.95;5.97;;;18.00;40.90;;;;;;5017599;28;20709;-68
2023/02/11 01:02:57;;;;;;;7.32;5.80;;;18.00;41.60;;;;;;5032779;28;20212;-68
2023/02/11 01:05:24;;;;;;;7.93;6.07;;;18.00;41.00;;;;;;5035155;28;20220;-68
2023/02/11 01:07:51;;;;;;;8.32;5.90;;;17.90;40.90;;;;;;5034773;28;20189;-68
2023/02/11 01:10:20;;;;;;;9.40;6.10;;;18.00;41.00;;;;;;5035230;28;20628;-68
2023/02/11 01:12:48;;;;;;;7.80;5.95;;;17.90;40.90;;;;;;5035183;28;20212;-68
2023/02/11 01:15:17;;;;;;;10.68;6.40;;;17.90;40.90;;;;;;5035332;28;20274;-68
2023/02/11 01:17:45;;;;;;;8.25;5.80;;;17.90;41.00;;;;;;5033434;28;20236;-68
2023/02/11 01:20:15;;;;;;;8.65;6.03;;;17.90;41.00;;;;;;5034695;28;20625;-68
2023/02/11 01:22:42;;;;;;;9.27;5.82;;;17.90;41.00;;;;;;5016580;28;20232;-68
2023/02/11 01:25:10;;;;;;;8.05;5.47;;;17.90;41.00;;;;;;5034953;28;20266;-68
2023/02/11 01:27:39;;;;;;;9.30;5.70;;;17.90;41.00;;;;;;5034859;28;20234;-68
2023/02/11 01:30:08;;;;;;;7.57;5.50;;;17.90;41.00;;;;;;5034696;28;20262;-68
2023/02/11 01:32:36;;;;;;;8.82;6.20;;;17.90;41.00;;;;;;5030417;28;20196;-68
2023/02/11 01:35:04;;;;;;;12.32;6.05;;;17.90;41.00;;;;;;5034384;28;20628;-68
2023/02/11 01:37:33;;;;;;;9.40;6.50;;;17.90;41.00;;;;;;5034696;28;20239;-68
2023/02/11 01:40:02;;;;;;;9.30;5.57;;;17.90;41.10;;;;;;5017308;28;20220;-68
2023/02/11 01:42:29;;;;;;;9.00;5.47;;;17.90;41.10;;;;;;5017131;28;20196;-68
2023/02/11 01:45:00;;;;;;;7.95;5.55;;;17.90;41.10;;;;;;5033953;28;20301;-68
2023/02/11 01:47:27;;;;;;;11.50;5.90;;;17.90;41.20;;;;;;5034134;28;20188;-68
2023/02/11 01:49:57;;;;;;;6.65;5.45;;;17.90;41.20;;;;;;5034494;28;20220;-68
2023/02/11 01:52:29;;;;;;;6.88;5.30;;;17.90;41.20;;;;;;5034291;28;20646;-68
2023/02/11 01:57:52;;;;;;;7.80;5.45;;;17.80;41.10;;;;;;5034034;28;20661;-68
2023/02/11 02:00:25;;;;;;;8.85;5.45;;;17.80;41.10;;;;;;5034536;28;20217;-68
2023/02/11 02:02:58;;;;;;;8.45;5.32;;;17.80;41.10;;;;;;5033390;28;20238;-68
2023/02/11 02:05:39;;;;;;;8.50;5.55;;;17.80;41.10;;;;;;5021944;28;20212;-68
2023/02/11 02:08:14;;;;;;;8.32;5.57;;;17.80;41.20;;;;;;5034039;28;20250;-68
2023/02/11 02:10:44;;;;;;;7.18;5.22;;;17.80;41.20;;;;;;5034038;28;20224;-68
2023/02/11 02:13:12;;;;;;;8.88;5.70;;;17.80;41.20;;;;;;5033924;28;20196;-68
2023/02/11 02:15:44;;;;;;;9.00;5.78;;;17.80;41.20;;;;;;5033345;28;20266;-68
2023/02/11 02:18:29;;;;;;;8.68;5.82;;;17.80;41.20;;;;;;5033545;28;20247;-68
2023/02/11 02:21:38;;;;;;;8.27;5.38;;;17.80;41.20;;;;;;5016180;28;20212;-68
2023/02/11 02:24:39;;;;;;;7.57;5.43;;;17.80;41.30;;;;;;5033599;28;20212;-68
2023/02/11 02:27:26;;;;;;;9.15;5.15;;;17.80;41.30;;;;;;5033802;28;20191;-69
2023/02/11 02:30:37;;;;;;;9.32;6.10;;;17.80;41.30;;;;;;4952717;29;20701;-68
2023/02/11 02:33:15;;;;;;;8.85;5.57;;;17.80;41.30;;;;;;4918034;29;20609;-68
2023/02/11 02:35:47;;;;;;;8.07;5.38;;;17.80;41.40;;;;;;4937367;29;20233;-68
2023/02/11 02:38:21;;;;;;;6.93;5.30;;;17.80;41.40;;;;;;4937119;29;20202;-68
2023/02/11 02:40:52;;;;;;;8.75;5.78;;;17.80;41.40;;;;;;4952883;29;20223;-68
2023/02/11 02:43:21;;;;;;;8.13;5.60;;;17.80;41.40;;;;;;4952693;29;20271;-68
2023/02/11 02:45:48;;;;;;;7.70;5.40;;;17.80;41.50;;;;;;4952859;29;20947;-68
2023/02/11 02:48:34;;;;;;;9.13;5.57;;;17.80;41.50;;;;;;4952760;29;20776;-68
2023/02/11 02:51:11;;;;;;;9.07;5.90;;;17.70;41.40;;;;;;4933552;29;20283;-68
2023/02/11 02:53:54;;;;;;;6.60;4.97;;;17.80;41.60;;;;;;4933493;29;20255;-68
2023/02/11 02:56:29;;;;;;;8.00;5.60;;;17.80;41.70;;;;;;4933521;29;20224;-68
2023/02/11 02:59:25;;;;;;;8.80;5.70;;;17.70;41.50;;;;;;4933436;29;20192;-68
2023/02/11 03:02:02;;;;;;;7.95;5.40;;;17.80;41.60;;;;;;4945663;29;20199;-68
2023/02/11 03:04:37;;;;;;;8.40;6.40;;;17.70;42.20;;;;;;4952255;29;20250;-68
2023/02/11 03:07:12;;;;;;;8.40;5.40;;;17.70;41.60;;;;;;4975695;28;20842;-68
2023/02/11 03:09:44;;;;;;;8.85;5.53;;;17.70;41.60;;;;;;5032699;28;20246;-68
2023/02/11 03:12:13;;;;;;;9.10;5.93;;;17.70;41.60;;;;;;5032674;28;20193;-68
2023/02/11 03:14:41;;;;;;;9.65;5.90;;;17.70;41.70;;;;;;5032779;28;20192;-68
2023/02/11 03:17:10;;;;;;;7.93;5.90;;;17.80;41.80;;;;;;5032548;28;20234;-69
2023/02/11 03:19:42;;;;;;;8.13;5.45;;;17.70;41.70;;;;;;5032979;28;20196;-68
2023/02/11 03:22:13;;;;;;;7.55;5.20;;;17.70;41.70;;;;;;5033053;28;20192;-68
2023/02/11 03:24:41;;;;;;;6.88;5.30;;;17.70;41.70;;;;;;5032544;28;20224;-68
2023/02/11 03:27:16;;;;;;;9.13;5.40;;;17.70;41.80;;;;;;5032674;28;20189;-68
2023/02/11 03:29:50;;;;;;;8.65;5.43;;;17.70;41.80;;;;;;5032252;28;20249;-68
2023/02/11 03:32:23;;;;;;;8.70;5.50;;;17.70;41.80;;;;;;5032467;28;20185;-68
2023/02/11 03:34:57;;;;;;;8.23;5.35;;;17.70;41.80;;;;;;5032525;28;20286;-68
2023/02/11 03:37:29;;;;;;;8.90;5.68;;;17.70;41.90;;;;;;5032257;28;20835;-68
2023/02/11 03:40:01;;;;;;;8.82;5.60;;;17.70;41.80;;;;;;5031709;28;20222;-68
2023/02/11 03:42:41;;;;;;;6.80;5.43;;;17.70;41.90;;;;;;5032745;28;20214;-68
2023/02/11 03:45:11;;;;;;;7.82;5.55;;;17.70;41.90;;;;;;5032009;28;20228;-68
2023/02/11 03:47:45;;;;;;;7.80;4.97;;;17.60;41.80;;;;;;5032377;28;20197;-68
2023/02/11 03:50:16;;;;;;;7.22;5.00;;;17.70;41.90;;;;;;5031780;28;20224;-68
2023/02/11 03:52:45;;;;;;;5.82;5.22;;;17.70;42.00;;;;;;5032257;28;20270;-68
2023/02/11 03:55:15;;;;;;;6.65;5.10;;;17.70;42.00;;;;;;5032067;28;20632;-68
2023/02/11 03:57:43;;;;;;;7.18;5.10;;;17.70;42.00;;;;;;5032253;28;20238;-68
2023/02/11 04:00:12;;;;;;;7.18;4.90;;;17.70;42.10;;;;;;5031962;28;20649;-68
2023/02/11 04:02:40;;;;;;;7.05;5.25;;;17.70;42.10;;;;;;5031985;28;20188;-68
2023/02/11 04:05:14;;;;;;;6.28;4.57;;;17.60;42.00;;;;;;5032129;28;20281;-68
2023/02/11 04:07:43;;;;;;;7.88;5.07;;;17.70;42.10;;;;;;5032220;28;20189;-68
2023/02/11 04:10:12;;;;;;;5.85;4.45;;;17.60;42.00;;;;;;5032009;28;20216;-68
2023/02/11 04:12:39;;;;;;;6.30;5.10;;;17.60;42.10;;;;;;5031872;28;20247;-68
2023/02/11 04:15:08;;;;;;;5.43;4.60;;;17.70;42.20;;;;;;5031794;28;20216;-68
2023/02/11 04:17:35;;;;;;;7.15;5.32;;;17.70;42.20;;;;;;5029011;28;20240;-68
2023/02/11 04:20:02;;;;;;;5.85;4.78;;;17.60;42.10;;;;;;5032260;28;20648;-68
2023/02/11 04:22:30;;;;;;;7.15;5.22;;;17.60;42.20;;;;;;5031976;28;20192;-68
2023/02/11 04:24:58;;;;;;;6.50;4.80;;;17.60;42.20;;;;;;5031631;28;20239;-68
2023/02/11 04:27:25;;;;;;;8.65;5.57;;;17.70;42.30;;;;;;5031782;28;20604;-68
2023/02/11 04:29:53;;;;;;;6.43;4.70;;;17.60;42.20;;;;;;5031355;28;20193;-68
2023/02/11 04:32:20;;;;;;;6.90;5.10;;;17.60;42.20;;;;;;5031655;28;20192;-68
2023/02/11 04:34:47;;;;;;;7.75;5.43;;;17.60;42.30;;;;;;5031928;28;20605;-68
2023/02/11 04:37:14;;;;;;;6.60;5.05;;;17.60;42.30;;;;;;5031675;28;20192;-68
2023/02/11 04:39:41;;;;;;;6.85;5.00;;;17.60;42.30;;;;;;5031912;28;20600;-68
2023/02/11 04:42:11;;;;;;;6.82;4.80;;;17.60;42.30;;;;;;5014111;28;20239;-68
2023/02/11 04:44:38;;;;;;;7.03;5.22;;;17.60;42.40;;;;;;5031435;28;20216;-68
2023/02/11 04:47:05;;;;;;;7.35;4.93;;;17.60;42.40;;;;;;5031751;28;20698;-68
2023/02/11 04:49:33;;;;;;;7.30;5.35;;;17.60;42.40;;;;;;5031670;28;20243;-68
2023/02/11 04:52:00;;;;;;;7.38;4.82;;;17.60;42.40;;;;;;5034863;28;20223;-68
2023/02/11 04:54:27;;;;;;;6.72;4.93;;;17.60;42.40;;;;;;5035544;28;20196;-68
2023/02/11 04:56:54;;;;;;;7.43;5.70;;;17.60;42.40;;;;;;5035135;28;20277;-68
2023/02/11 04:59:23;;;;;;;7.13;5.30;;;17.60;42.40;;;;;;5035137;28;20716;-68
2023/02/11 05:01:51;;;;;;;7.15;5.05;;;17.60;42.40;;;;;;5035346;28;20278;-68
2023/02/11 05:04:18;;;;;;;7.03;5.15;;;17.60;42.50;;;;;;5034824;28;20220;-68
2023/02/11 05:06:45;;;;;;;7.25;5.28;;;17.60;42.50;;;;;;5017836;28;20216;-68
2023/02/11 05:09:13;;;;;;;6.25;4.78;;;17.50;42.40;;;;;;5035209;28;20184;-68
2023/02/11 05:11:41;;;;;;;7.03;5.32;;;17.60;42.60;;;;;;5034836;28;20698;-68
2023/02/11 05:14:08;;;;;;;6.32;4.90;;;17.50;42.50;;;;;;5034752;28;20192;-68
2023/02/11 05:16:36;;;;;;;7.00;5.00;;;17.60;42.60;;;;;;5034817;28;20228;-68
2023/02/11 05:19:04;;;;;;;6.60;5.07;;;17.60;42.60;;;;;;5035298;28;20192;-68
2023/02/11 05:21:31;;;;;;;6.35;4.60;;;17.50;42.50;;;;;;5035310;28;20221;-68
2023/02/11 05:23:59;;;;;;;6.28;4.57;;;17.60;42.70;;;;;;5034719;28;20543;-68
2023/02/11 05:26:26;;;;;;;5.78;4.70;;;17.50;42.60;;;;;;5034988;28;20216;-68
2023/02/11 05:28:54;;;;;;;7.18;4.90;;;17.50;42.60;;;;;;5034816;28;20192;-68
2023/02/11 05:31:21;;;;;;;6.85;4.60;;;17.50;42.60;;;;;;5034226;28;20780;-68
2023/02/11 05:33:49;;;;;;;5.80;4.40;;;17.50;42.70;;;;;;5034344;28;20674;-68
2023/02/11 05:36:17;;;;;;;6.60;4.57;;;17.50;42.70;;;;;;5034796;28;20278;-68
2023/02/11 05:38:44;;;;;;;6.57;4.90;;;17.50;42.70;;;;;;5034639;28;20331;-68
2023/02/11 05:41:11;;;;;;;6.80;4.75;;;17.50;42.70;;;;;;5034397;28;20227;-68
2023/02/11 05:43:38;;;;;;;5.25;4.32;;;17.50;42.70;;;;;;5034350;28;20185;-68
2023/02/11 05:46:06;;;;;;;6.68;5.20;;;17.50;42.70;;;;;;5034532;28;20238;-68
2023/02/11 05:48:33;;;;;;;5.93;4.47;;;17.50;42.80;;;;;;5034403;28;20188;-68
2023/02/11 05:51:03;;;;;;;7.05;4.85;;;17.50;42.70;;;;;;5034159;28;20270;-68
2023/02/11 05:53:30;;;;;;;7.45;4.72;;;17.60;42.90;;;;;;5034359;28;20212;-68
2023/02/11 05:55:57;;;;;;;7.13;4.90;;;17.60;42.90;;;;;;5034314;28;20220;-68
2023/02/11 05:58:24;;;;;;;6.43;4.80;;;17.60;42.90;;;;;;5033897;28;20552;-68
2023/02/11 06:00:51;;;;;;;6.25;4.22;;;17.60;42.90;;;;;;5033948;28;20233;-68
2023/02/11 06:03:19;;;;;;;5.35;4.60;;;17.60;42.90;;;;;;5033291;28;20231;-68
2023/02/11 06:05:46;;;;;;;5.57;4.68;;;17.60;42.90;;;;;;5034063;28;20232;-68
2023/02/11 06:08:14;;;;;;;5.40;4.25;;;17.60;42.90;;;;;;5034069;28;20188;-68
2023/02/11 06:10:44;;;;;;;5.38;4.50;;;17.60;42.90;;;;;;5033727;28;20216;-68
2023/02/11 06:13:11;;;;;;;6.00;4.60;;;17.60;42.90;;;;;;5033647;28;20724;-68
2023/02/11 06:15:39;;;;;;;5.13;4.25;;;17.70;42.90;;;;;;5033442;28;20220;-68
2023/02/11 06:18:06;;;;;;;5.97;4.70;;;17.70;42.90;;;;;;5033560;28;20315;-68
2023/02/11 06:20:33;;;;;;;5.30;4.50;;;17.70;42.90;;;;;;5034066;28;20263;-68
2023/02/11 06:23:01;;;;;;;6.50;4.68;;;17.70;42.90;;;;;;5033766;28;20199;-68
2023/02/11 06:25:29;;;;;;;6.45;4.75;;;17.80;42.90;;;;;;5033340;28;20282;-68
2023/02/11 06:27:57;;;;;;;5.75;4.40;;;17.80;43.00;;;;;;5033343;28;20234;-68
2023/02/11 06:30:24;;;;;;;5.03;4.32;;;17.80;42.90;;;;;;5015829;28;20216;-67
2023/02/11 06:32:51;;;;;;;6.22;4.22;;;17.80;42.90;;;;;;5032962;28;20246;-68
2023/02/11 06:35:18;;;;;;;4.82;4.32;;;17.80;42.90;;;;;;5033185;28;20654;-68
2023/02/11 06:37:46;;;;;;;5.13;4.28;;;17.80;42.90;;;;;;5033334;28;20251;-68
2023/02/11 06:40:14;;;;;;;6.88;4.70;;;17.80;42.90;;;;;;5033425;28;20196;-68
2023/02/11 06:42:42;;;;;;;5.70;4.28;;;17.90;43.00;;;;;;5015799;28;20274;-68
2023/02/11 06:45:12;;;;;;;5.40;4.22;;;17.90;43.00;;;;;;5033266;28;20220;-68
2023/02/11 06:47:39;;;;;;;5.90;4.90;;;17.90;43.00;;;;;;5033280;28;20188;-68
2023/02/11 06:50:08;;;;;;;6.55;4.45;;;17.90;43.00;;;;;;5033266;28;20189;-68
2023/02/11 06:52:35;;;;;;;5.00;4.18;;;17.90;43.00;;;;;;5033034;28;20193;-68
2023/02/11 06:55:03;;;;;;;4.72;3.90;;;17.90;43.00;;;;;;5033232;28;20192;-68
2023/02/11 06:57:31;;;;;;;5.45;4.10;;;17.90;42.90;;;;;;5033086;28;20655;-68
2023/02/11 07:00:00;;;;;;;4.40;3.60;;;17.90;42.90;;;;;;5033085;28;20262;-68
2023/02/11 07:02:27;;;;;;;5.28;3.88;;;17.90;42.90;;;;;;5033171;28;20250;-68
2023/02/11 07:04:54;;;;;;;4.68;3.58;;;18.00;43.00;;;;;;5032989;28;20212;-68
2023/02/11 07:07:21;;;;;;;4.97;3.97;;;18.00;43.00;;;;;;5032911;28;20770;-68
2023/02/11 07:09:48;;;;;;;5.15;3.97;;;18.00;43.60;;;;;;5033256;28;20200;-68
2023/02/11 07:12:15;;;;;;;4.40;3.90;;;18.00;43.00;;;;;;5032310;28;20639;-68
2023/02/11 07:14:42;;;;;;;4.63;3.58;;;18.00;43.00;;;;;;5032307;28;20247;-68
2023/02/11 07:17:11;;;;;;;4.60;3.58;;;18.00;43.00;;;;;;5032511;28;20228;-68
2023/02/11 07:19:38;;;;;;;4.80;3.80;;;18.00;43.00;;;;;;5033016;28;20254;-68
2023/02/11 07:22:05;;;;;;;4.80;4.00;;;18.00;43.00;;;;;;5032930;28;20270;-68
2023/02/11 07:24:33;;;;;;;4.90;3.72;;;18.00;43.00;;;;;;5032616;28;20239;-68
2023/02/11 07:27:00;;;;;;;5.10;3.75;;;18.10;43.10;;;;;;5032870;28;20275;-68
2023/02/11 07:29:27;;;;;;;4.13;3.30;;;18.10;43.10;;;;;;5032283;28;20193;-68
2023/02/11 07:31:55;;;;;;;5.28;4.22;;;18.10;43.10;;;;;;5032039;28;20282;-68
2023/02/11 07:34:24;;;;;;;3.55;3.22;;;18.10;43.10;;;;;;5033072;28;20196;-68
2023/02/11 07:36:51;;;;;;;4.10;3.42;;;18.10;43.10;;;;;;5032759;28;20220;-68
2023/02/11 07:39:21;;;;;;;3.95;3.15;;;18.10;43.10;;;;;;5032226;28;20583;-68
2023/02/11 07:41:48;;;;;;;4.75;3.60;;;18.10;43.10;;;;;;5032554;28;20217;-68
2023/02/11 07:44:15;;;;;;;3.67;3.00;;;18.20;43.20;;;;;;5032042;28;20603;-68
2023/02/11 07:46:44;;;;;;;3.70;3.22;;;18.10;43.10;;;;;;5032050;28;20644;-68
2023/02/11 07:49:11;;;;;;;3.97;3.30;;;18.10;43.20;;;;;;5032036;28;20612;-68
2023/02/11 07:51:40;;;;;;;3.88;3.22;;;18.20;43.20;;;;;;5031935;28;20220;-68
2023/02/11 07:54:08;;;;;;;4.38;3.28;;;18.20;43.20;;;;;;5032183;28;20254;-68
2023/02/11 07:56:35;;;;;;;3.80;2.97;;;18.20;43.20;;;;;;5032382;28;20374;-68
2023/02/11 07:59:03;;;;;;;5.32;3.35;;;18.20;43.20;;;;;;5032026;28;20548;-68
2023/02/11 08:01:31;;;;;;;3.92;3.22;;;18.20;43.20;;;;;;5014766;28;20220;-68
2023/02/11 08:04:00;;;;;;;3.83;3.17;;;18.20;43.20;;;;;;5032163;28;20184;-68
2023/02/11 08:06:30;;;;;;;4.35;3.25;;;18.20;43.20;;;;;;5032269;28;20286;-68
2023/02/11 08:08:58;;;;;;;3.65;3.15;;;18.20;43.20;;;;;;5032228;28;20197;-68
2023/02/11 08:11:28;;;;;;;4.15;3.25;;;18.20;43.20;;;;;;5031934;28;20224;-68
2023/02/11 08:13:56;;;;;;;3.80;3.08;;;18.20;43.20;;;;;;5032283;28;20219;-68
2023/02/11 08:16:26;;;;;;;3.63;2.90;;;18.20;43.20;;;;;;5031653;28;20309;-68
2023/02/11 08:18:56;;;;;;;3.65;3.08;;;18.30;43.30;;;;;;5032116;28;20193;-68
2023/02/11 08:21:23;;;;;;;4.32;3.30;;;18.30;43.40;;;;;;5032159;28;20303;-68
2023/02/11 08:23:50;;;;;;;3.42;3.00;;;18.30;43.30;;;;;;5032054;28;20239;-68
2023/02/11 08:26:21;;;;;;;3.97;3.10;;;18.30;43.30;;;;;;5033439;28;20285;-68
2023/02/11 08:28:50;;;;;;;3.50;3.10;;;18.30;43.30;;;;;;5035695;28;20188;-68
2023/02/11 08:31:19;;;;;;;3.30;2.78;;;18.30;43.30;;;;;;5035622;28;20212;-68
2023/02/11 08:33:46;;;;;;;3.90;2.95;;;18.30;43.30;;;;;;5035778;28;20242;-68
2023/02/11 08:36:15;;;;;;;3.90;3.38;;;18.30;43.30;;;;;;5035574;28;20211;-68
2023/02/11 08:38:43;;;;;;;3.78;3.10;;;18.30;43.30;;;;;;5035819;28;20192;-68
2023/02/11 08:41:10;;;;;;;3.80;3.00;;;18.30;43.30;;;;;;5035832;28;20262;-68
2023/02/11 08:43:40;;;;;;;3.80;2.95;;;18.30;43.40;;;;;;5035630;28;20608;-68
2023/02/11 08:46:08;;;;;;;3.63;2.80;;;18.30;43.40;;;;;;5035308;28;20714;-68
2023/02/11 08:48:35;;;;;;;3.10;2.80;;;18.30;43.30;;;;;;5035506;28;20239;-68
2023/02/11 08:51:07;;;;;;;3.72;2.88;;;18.30;43.40;;;;;;5035086;28;20270;-68
2023/02/11 08:53:35;;;;;;;3.38;2.65;;;18.40;43.50;;;;;;5035507;28;20195;-68
2023/02/11 08:56:02;;;;;;;3.33;2.70;;;18.40;43.50;;;;;;5017906;28;20286;-68
2023/02/11 08:58:29;;;;;;;3.00;2.70;;;18.30;43.40;;;;;;5035479;28;20332;-68
2023/02/11 09:00:58;;;;;;;3.33;3.03;;;18.30;43.40;;;;;;5035635;28;20212;-68
2023/02/11 09:03:26;;;;;;;3.20;2.80;;;18.40;43.50;;;;;;5035224;28;20266;-68
2023/02/11 09:05:53;;;;;;;3.92;3.20;;;18.40;43.50;;;;;;5035019;28;20363;-68
2023/02/11 09:08:21;;;;;;;3.55;3.03;;;18.40;43.40;;;;;;5035178;28;20540;-68
2023/02/11 09:10:49;;;;;;;4.75;3.15;;;18.40;43.50;;;;;;5035138;28;20293;-68
2023/02/11 09:13:16;;;;;;;3.85;2.80;;;18.40;43.50;;;;;;5017258;28;20597;-68
2023/02/11 09:15:45;;;;;;;3.25;2.60;;;18.40;43.50;;;;;;5034561;28;20647;-68
2023/02/11 09:18:14;;;;;;;3.20;2.60;;;18.40;43.50;;;;;;5035067;28;20193;-68
2023/02/11 09:20:41;;;;;;;3.03;2.45;;;18.40;43.50;;;;;;5035027;28;20204;-68
2023/02/11 09:23:10;;;;;;;3.63;2.83;;;18.40;43.50;;;;;;5034870;28;20193;-68
2023/02/11 09:25:39;;;;;;;3.03;2.58;;;18.40;43.50;;;;;;5017416;28;20213;-68
2023/02/11 09:28:06;;;;;;;3.10;2.67;;;18.40;43.50;;;;;;5034952;28;20557;-68
2023/02/11 09:30:33;;;;;;;2.88;2.40;;;18.40;43.50;;;;;;5034395;28;20200;-68
2023/02/11 09:33:00;;;;;;;2.90;2.45;;;18.40;43.50;;;;;;5034228;28;20700;-68
2023/02/11 09:35:29;;;;;;;3.25;2.75;;;18.50;43.50;;;;;;5034782;28;20188;-68
2023/02/11 09:37:56;;;;;;;3.00;2.70;;;18.40;43.50;;;;;;5034024;28;20224;-69
2023/02/11 09:40:23;;;;;;;4.15;2.80;;;18.40;43.50;;;;;;5034537;28;20605;-68
2023/02/11 09:42:54;;;;;;;3.97;2.60;;;18.40;43.50;;;;;;5034868;28;20278;-68
2023/02/11 09:45:24;;;;;;;4.20;2.42;;;18.40;43.50;;;;;;5034225;28;20247;-68
2023/02/11 09:47:56;;;;;;;2.90;2.35;;;18.40;43.50;;;;;;5034478;28;20275;-68
2023/02/11 09:50:29;;;;;;;3.88;2.60;;;18.40;43.50;;;;;;5034452;28;20196;-68
2023/02/11 09:53:02;;;;;;;3.50;2.75;;;18.40;43.50;;;;;;5033844;28;20270;-68
2023/02/11 09:55:32;;;;;;;2.97;2.33;;;18.40;43.50;;;;;;5034320;28;20195;-68
2023/02/11 09:58:05;;;;;;;2.90;2.53;;;18.50;43.60;;;;;;5034507;28;20226;-68
2023/02/11 10:00:37;;;;;;;3.28;2.75;;;18.40;43.50;;;;;;5034297;28;20239;-68
2023/02/11 10:03:37;;;;;;;3.13;2.50;;;18.50;43.50;;;;;;5033731;28;20196;-68
2023/02/11 10:06:22;;;;;;;2.83;2.38;;;18.40;43.50;;;;;;5033862;28;20231;-68
2023/02/11 10:09:01;;;;;;;3.13;2.63;;;18.50;43.60;;;;;;5034228;28;20247;-68
2023/02/11 10:11:36;;;;;;;2.78;2.50;;;18.50;43.60;;;;;;5033332;28;20278;-68
2023/02/11 10:14:12;;;;;;;3.30;2.38;;;18.40;43.50;;;;;;5033788;28;20184;-68
2023/02/11 10:16:54;;;;;;;3.08;2.30;;;18.40;43.50;;;;;;5033547;28;20267;-68
2023/02/11 10:19:35;;;;;;;2.75;2.22;;;18.40;43.50;;;;;;5033887;28;20192;-68
2023/02/11 10:22:09;;;;;;;2.78;2.20;;;18.40;43.50;;;;;;5033682;28;20693;-68
2023/02/11 10:24:38;;;;;;;3.28;2.30;;;18.40;43.50;;;;;;5016064;28;20192;-68
2023/02/11 10:27:16;;;;;;;2.67;2.47;;;18.50;43.60;;;;;;5033771;28;20232;-68
2023/02/11 10:29:49;;;;;;;2.70;2.30;;;18.40;43.50;;;;;;5033729;28;20196;-68
2023/02/11 10:32:29;;;;;;;2.42;2.10;;;18.50;43.60;;;;;;5033137;28;20274;-68
2023/02/11 10:35:01;;;;;;;2.67;2.20;;;18.40;43.50;;;;;;5032886;28;20724;-68
2023/02/11 10:37:29;;;;;;;2.22;2.03;;;18.50;43.70;;;;;;5033889;28;20227;-68
2023/02/11 10:39:58;;;;;;;2.75;2.00;;;18.40;43.50;;;;;;5033191;28;20195;-68
2023/02/11 10:42:26;;;;;;;2.20;1.80;;;18.50;43.60;;;;;;5033545;28;20270;-68
2023/02/11 10:44:59;;;;;;;2.72;1.95;;;18.50;43.60;;;;;;5033388;28;20655;-68
2023/02/11 10:47:31;;;;;;;2.50;1.90;;;18.50;43.60;;;;;;5033296;28;20350;-68
2023/02/11 10:50:02;;;;;;;3.38;2.47;;;18.50;43.60;;;;;;5032914;28;20200;-68
2023/02/11 10:52:31;;;;;;;2.25;2.00;;;18.50;43.60;;;;;;5033418;28;20362;-68
2023/02/11 10:55:03;;;;;;;2.25;2.00;;;18.50;43.60;;;;;;5032948;28;20247;-68
2023/02/11 10:57:35;;;;;;;3.45;2.30;;;18.50;43.60;;;;;;5032988;28;20625;-68
2023/02/11 11:00:16;;;;;;;2.95;2.13;;;18.50;43.70;;;;;;5033201;28;20197;-68
2023/02/11 11:02:45;;;;;;;2.10;1.65;;;18.50;43.70;;;;;;5032649;28;20227;-68
2023/02/11 11:05:18;;;;;;;2.40;1.90;;;18.50;43.70;;;;;;5013604;28;20216;-68
2023/02/11 11:07:54;;;;;;;2.22;1.92;;;18.50;43.70;;;;;;5013322;28;20323;-68
2023/02/11 11:10:43;;;;;;;3.17;1.67;;;18.50;43.70;;;;;;5013468;28;20292;-68
2023/02/11 11:13:30;;;;;;;2.67;2.03;;;18.50;43.70;;;;;;5011419;28;20248;-68
2023/02/11 11:16:18;;;;;;;2.80;2.03;;;18.50;43.70;;;;;;5012896;28;20225;-68
2023/02/11 11:18:47;;;;;;;2.45;1.80;;;18.50;43.70;;;;;;5013088;28;20255;-68
2023/02/11 11:21:18;;;;;;;3.03;1.58;;;18.50;44.40;;;;;;5013121;28;20279;-68
2023/02/11 11:23:51;;;;;;;3.38;1.90;;;18.50;43.70;;;;;;5021066;28;20197;-68
2023/02/11 11:26:20;;;;;;;2.03;1.80;;;18.50;43.70;;;;;;5032489;28;20278;-68
2023/02/11 11:29:07;;;;;;;2.50;1.70;;;18.50;43.80;;;;;;5032334;28;20192;-68
2023/02/11 11:31:37;;;;;;;2.05;1.50;;;18.50;43.70;;;;;;5030415;28;20216;-68
2023/02/11 11:34:21;;;;;;;2.15;1.73;;;18.50;43.70;;;;;;5015407;28;20595;-68
2023/02/11 11:36:49;;;;;;;1.92;1.67;;;18.50;43.70;;;;;;5016045;28;20226;-68
2023/02/11 11:39:23;;;;;;;3.22;1.90;;;18.50;43.80;;;;;;5032568;28;20197;-68
2023/02/11 11:41:56;;;;;;;2.85;1.80;;;18.50;43.80;;;;;;5032254;28;20280;-68
2023/02/11 11:44:31;;;;;;;1.75;1.60;;;18.50;43.80;;;;;;5032195;28;20280;-68
2023/02/11 11:47:25;;;;;;;2.15;1.70;;;18.50;43.70;;;;;;5032260;28;20231;-68
2023/02/11 11:50:09;;;;;;;2.60;2.00;;;18.50;43.80;;;;;;5032550;28;20192;-68
2023/02/11 11:52:44;;;;;;;2.33;1.60;;;18.50;43.80;;;;;;5032280;28;20756;-68
2023/02/11 11:55:17;;;;;;;1.77;1.60;;;18.50;43.70;;;;;;5032355;28;20196;-68
2023/02/11 11:57:47;;;;;;;2.50;1.77;;;18.50;43.80;;;;;;4998275;28;20653;-68
2023/02/11 12:00:17;;;;;;;2.17;1.88;;;18.50;43.80;;;;;;5032518;28;20243;-68
2023/02/11 12:03:35;;;;;;;2.10;1.70;;;18.50;43.80;;;;;;5036200;28;20225;-68
2023/02/11 12:06:13;;;;;;;1.88;1.55;;;18.50;43.80;;;;;;5036167;28;20697;-68
2023/02/11 12:08:48;;;;;;;2.33;1.50;;;18.50;43.80;;;;;;5036383;28;20207;-68
2023/02/11 12:11:25;;;;;;;1.90;1.50;;;18.50;43.80;;;;;;5036330;28;20246;-68
2023/02/11 12:14:08;;;;;;;1.85;1.40;;;18.50;43.70;;;;;;5019867;28;20250;-68
2023/02/11 12:16:44;;;;;;;1.85;1.50;;;18.50;43.80;;;;;;5035949;28;20298;-68
2023/02/11 12:19:35;;;;;;;2.47;1.65;;;18.50;43.80;;;;;;5036248;28;20192;-68
2023/02/11 12:22:10;;;;;;;1.50;1.40;;;18.50;43.80;;;;;;5036298;28;20227;-68
2023/02/11 12:24:54;;;;;;;1.65;1.50;;;18.50;43.90;;;;;;5035928;28;20200;-68
2023/02/11 12:27:35;;;;;;;1.45;1.20;;;18.50;43.80;;;;;;5036158;28;20232;-68
2023/02/11 12:30:21;;;;;;;2.17;1.80;;;18.50;43.80;;;;;;5036197;28;20200;-68
2023/02/11 12:32:55;;;;;;;2.22;1.40;;;18.50;43.80;;;;;;5035448;28;20224;-68
2023/02/11 12:35:33;;;;;;;2.10;1.52;;;18.50;43.80;;;;;;5035887;28;20188;-68
2023/02/11 12:38:30;;;;;;;2.80;1.35;;;18.50;43.80;;;;;;5035987;28;20227;-68
2023/02/11 12:41:09;;;;;;;1.77;1.38;;;18.50;43.80;;;;;;5035799;28;20590;-68
2023/02/11 12:43:37;;;;;;;1.70;1.27;;;18.50;43.80;;;;;;5035417;28;20216;-68
2023/02/11 12:46:33;;;;;;;1.60;1.40;;;18.50;43.80;;;;;;5035666;28;20197;-68
2023/02/11 12:49:14;;;;;;;1.30;1.20;;;18.50;43.80;;;;;;5035869;28;20204;-68
2023/02/11 12:51:58;;;;;;;1.50;1.13;;;18.50;43.80;;;;;;5035757;28;20262;-68
2023/02/11 12:54:29;;;;;;;2.60;1.38;;;18.50;43.90;;;;;;5035267;28;20197;-68
2023/02/11 12:57:02;;;;;;;1.73;1.10;;;18.50;43.80;;;;;;5035049;28;20286;-68
2023/02/11 12:59:54;;;;;;;1.40;1.10;;;18.50;43.90;;;;;;5034603;28;20287;-68
2023/02/11 13:02:31;;;;;;;1.52;1.10;;;18.50;43.90;;;;;;5035071;28;20307;-68
2023/02/11 13:05:04;;;;;;;2.92;2.03;;;18.50;43.90;;;;;;5021778;28;20343;-68
2023/02/11 13:07:38;;;;;;;2.60;1.67;;;18.50;43.90;;;;;;5013088;28;20240;-68
2023/02/11 13:10:16;;;;;;;2.25;1.75;;;18.50;44.10;;;;;;4974740;28;20672;-68